Time;durP1;ratioP1;P1;durP2;ratioP2;P2;SDS_P1;SDS_P2;PMS_P1;PMS_P2;Temp;Humidity;BMP_temperature;BMP_pressure;BME280_temperature;BME280_humidity;BME280_pressure;Samples;Min_cycle;Max_cycle;Signal;HPM_P1;HPM_P2
2022/11/01 00:01:13;;;;;;;8.48;4.78;;;18.10;91.10;;;;;;4935197;29;20027;-79
2022/11/01 00:03:39;;;;;;;8.18;4.75;;;18.00;91.10;;;;;;4935319;29;20088;-78
2022/11/01 00:06:05;;;;;;;7.90;4.90;;;18.00;91.10;;;;;;4934904;29;20091;-78
2022/11/01 00:08:30;;;;;;;7.88;4.60;;;18.10;91.10;;;;;;4936143;29;20027;-79
2022/11/01 00:11:09;;;;;;;8.23;4.82;;;18.00;91.00;;;;;;4934736;29;20082;-80
2022/11/01 00:13:34;;;;;;;8.70;4.80;;;18.10;91.00;;;;;;4934243;29;20405;-79
2022/11/01 00:16:00;;;;;;;7.68;4.55;;;18.10;91.00;;;;;;4934567;29;20035;-79
2022/11/01 00:18:26;;;;;;;7.95;4.15;;;18.10;90.90;;;;;;4934562;29;20027;-79
2022/11/01 00:20:51;;;;;;;8.98;4.57;;;18.10;90.80;;;;;;4935306;29;20032;-79
2022/11/01 00:23:17;;;;;;;8.63;4.78;;;18.10;90.80;;;;;;4933990;29;20106;-78
2022/11/01 00:25:43;;;;;;;8.48;4.85;;;18.10;90.80;;;;;;4934060;29;20036;-79
2022/11/01 00:28:09;;;;;;;8.65;4.78;;;18.10;90.90;;;;;;4934192;29;20118;-78
2022/11/01 00:30:40;;;;;;;7.10;4.38;;;18.00;90.90;;;;;;4934292;29;20122;-79
2022/11/01 00:33:06;;;;;;;8.27;4.78;;;18.10;90.90;;;;;;4933864;29;20027;-79
2022/11/01 00:35:32;;;;;;;8.32;4.80;;;18.00;90.90;;;;;;4934173;29;20119;-79
2022/11/01 00:37:58;;;;;;;7.72;4.68;;;18.00;90.90;;;;;;4939328;29;20071;-82
2022/11/01 00:40:25;;;;;;;8.68;4.85;;;18.00;91.00;;;;;;4938768;29;20028;-80
2022/11/01 00:42:50;;;;;;;7.72;4.55;;;18.00;90.90;;;;;;4938168;29;20028;-80
2022/11/01 00:45:16;;;;;;;8.88;4.90;;;18.00;91.00;;;;;;4940115;29;20047;-80
2022/11/01 00:47:41;;;;;;;7.90;4.40;;;18.00;91.00;;;;;;4937817;29;20032;-79
2022/11/01 00:50:07;;;;;;;7.90;4.35;;;18.00;91.00;;;;;;4938021;29;20124;-80
2022/11/01 00:52:33;;;;;;;8.07;4.88;;;18.00;91.10;;;;;;4939416;29;20071;-79
2022/11/01 00:54:59;;;;;;;9.40;4.95;;;18.00;91.00;;;;;;4941350;29;20493;-80
2022/11/01 00:57:24;;;;;;;6.95;4.50;;;18.00;91.10;;;;;;4941144;29;20035;-79
2022/11/01 00:59:50;;;;;;;6.70;4.25;;;18.00;91.10;;;;;;4940822;29;20371;-80
2022/11/01 01:02:15;;;;;;;9.40;4.50;;;18.00;91.10;;;;;;4939910;29;20032;-80
2022/11/01 01:04:42;;;;;;;7.75;4.72;;;18.00;91.10;;;;;;4940287;29;20038;-79
2022/11/01 01:07:08;;;;;;;7.88;4.88;;;18.00;91.30;;;;;;4940604;29;20040;-79
2022/11/01 01:09:34;;;;;;;7.90;4.50;;;18.00;91.00;;;;;;4940855;29;20043;-80
2022/11/01 01:12:00;;;;;;;7.07;4.32;;;18.00;91.00;;;;;;4939799;29;20024;-79
2022/11/01 01:14:26;;;;;;;8.00;4.53;;;18.00;91.00;;;;;;4933573;29;20024;-80
2022/11/01 01:16:52;;;;;;;6.95;4.30;;;18.00;90.90;;;;;;4920430;29;20080;-79
2022/11/01 01:19:17;;;;;;;7.65;4.47;;;18.10;90.90;;;;;;4921593;29;20043;-78
2022/11/01 01:21:43;;;;;;;7.85;4.20;;;18.10;90.80;;;;;;4903631;29;20043;-77
2022/11/01 01:24:09;;;;;;;7.38;4.20;;;18.10;90.80;;;;;;4904498;29;20032;-79
2022/11/01 01:26:34;;;;;;;9.10;4.57;;;18.10;90.90;;;;;;4903662;29;20043;-79
2022/11/01 01:29:00;;;;;;;7.35;4.35;;;18.00;90.90;;;;;;4919830;29;20032;-80
2022/11/01 01:31:26;;;;;;;7.63;4.43;;;18.00;90.90;;;;;;4920967;29;20099;-79
2022/11/01 01:33:51;;;;;;;7.70;4.68;;;18.00;90.90;;;;;;4920567;29;20088;-79
2022/11/01 01:36:17;;;;;;;8.32;4.50;;;18.00;91.00;;;;;;4903970;29;20059;-78
2022/11/01 01:38:42;;;;;;;8.55;4.20;;;18.00;91.00;;;;;;4920914;29;20028;-79
2022/11/01 01:43:52;;;;;;;7.35;4.45;;;18.00;91.00;;;;;;4920421;29;20413;-79
2022/11/01 01:46:18;;;;;;;7.15;4.30;;;18.00;91.10;;;;;;4903433;29;20020;-78
2022/11/01 01:48:49;;;;;;;7.55;4.50;;;18.00;91.10;;;;;;4920080;29;20028;-79
2022/11/01 01:51:17;;;;;;;7.38;4.70;;;18.00;91.10;;;;;;4920499;29;20115;-80
2022/11/01 01:53:46;;;;;;;7.60;4.25;;;18.00;91.10;;;;;;4918397;29;20059;-79
2022/11/01 01:56:17;;;;;;;8.05;4.22;;;17.90;91.10;;;;;;4920055;29;20032;-78
2022/11/01 01:59:18;;;;;;;7.63;4.53;;;18.00;91.10;;;;;;4903210;29;20027;-79
2022/11/01 02:01:44;;;;;;;7.75;4.55;;;18.00;91.10;;;;;;4879440;29;20037;-79
2022/11/01 02:04:24;;;;;;;6.72;4.50;;;18.00;91.10;;;;;;4911365;29;20122;-79
2022/11/01 02:06:50;;;;;;;7.78;4.40;;;18.00;91.10;;;;;;4918412;29;20035;-78
2022/11/01 02:09:17;;;;;;;6.70;4.03;;;18.00;91.10;;;;;;4918061;29;20028;-79
2022/11/01 02:11:42;;;;;;;6.95;3.83;;;18.00;91.00;;;;;;4902483;29;20107;-76
2022/11/01 02:14:08;;;;;;;7.18;4.00;;;18.00;91.00;;;;;;4902224;29;20135;-79
2022/11/01 02:16:48;;;;;;;6.60;3.85;;;18.00;90.90;;;;;;4902019;29;20099;-78
2022/11/01 02:19:35;;;;;;;6.85;3.97;;;18.00;90.80;;;;;;4917853;29;20039;-79
2022/11/01 02:22:21;;;;;;;7.22;4.15;;;18.00;90.80;;;;;;4918685;29;20039;-79
2022/11/01 02:25:09;;;;;;;6.35;4.35;;;18.00;90.80;;;;;;4918801;29;20129;-80
2022/11/01 02:27:47;;;;;;;6.82;4.22;;;18.00;90.90;;;;;;4917549;29;20121;-79
2022/11/01 02:30:18;;;;;;;7.32;4.38;;;18.00;90.90;;;;;;4919121;29;20036;-79
2022/11/01 02:32:50;;;;;;;8.27;4.57;;;18.00;90.90;;;;;;4901355;29;20502;-78
2022/11/01 02:35:46;;;;;;;7.75;3.90;;;18.00;91.00;;;;;;4917498;29;20035;-79
2022/11/01 02:38:23;;;;;;;6.22;3.95;;;18.00;91.00;;;;;;4901937;29;20040;-79
2022/11/01 02:41:07;;;;;;;7.38;4.30;;;17.90;91.00;;;;;;4901450;29;20032;-79
2022/11/01 02:43:35;;;;;;;6.30;3.97;;;17.90;91.00;;;;;;4900976;29;20035;-79
2022/11/01 02:46:59;;;;;;;6.35;3.70;;;17.90;91.00;;;;;;4918669;29;20016;-78
2022/11/01 02:48:49;;;;;;;6.60;3.90;;;18.00;91.10;;;;;;4918086;29;20024;-79
2022/11/01 02:51:18;;;;;;;6.63;4.00;;;18.00;91.10;;;;;;4902959;29;20471;-78
2022/11/01 02:53:44;;;;;;;6.38;3.83;;;17.90;91.00;;;;;;4934066;29;20131;-79
2022/11/01 02:56:10;;;;;;;6.13;3.78;;;17.90;91.00;;;;;;4935916;29;20574;-78
2022/11/01 02:58:36;;;;;;;7.00;3.70;;;17.90;91.00;;;;;;4935505;29;20069;-79
2022/11/01 03:01:10;;;;;;;7.68;4.30;;;18.00;91.00;;;;;;4935437;29;20031;-79
2022/11/01 03:03:35;;;;;;;7.75;4.40;;;17.90;91.00;;;;;;4936295;29;20028;-77
2022/11/01 03:06:04;;;;;;;6.47;3.95;;;17.90;91.00;;;;;;4935439;29;20035;-80
2022/11/01 03:08:47;;;;;;;6.38;3.78;;;18.00;91.00;;;;;;4919975;29;20020;-80
2022/11/01 03:11:22;;;;;;;7.25;4.10;;;18.00;91.00;;;;;;4931688;29;20028;-80
2022/11/01 03:14:22;;;;;;;7.97;3.97;;;18.00;90.90;;;;;;4919841;29;20024;-80
2022/11/01 03:16:59;;;;;;;;;;;18.00;90.80;;;;;;4905355;29;20506;-80
2022/11/01 03:19:24;;;;;;;5.82;3.72;;;18.00;90.80;;;;;;4920583;29;19914;-80
2022/11/01 03:22:11;;;;;;;6.20;3.50;;;18.00;90.70;;;;;;4903839;29;20028;-80
2022/11/01 03:24:59;;;;;;;6.35;3.67;;;18.00;90.80;;;;;;4921059;29;20059;-79
2022/11/01 03:27:36;;;;;;;7.43;3.95;;;18.00;90.70;;;;;;4903985;29;20542;-80
2022/11/01 03:30:08;;;;;;;5.90;3.58;;;18.00;90.80;;;;;;4918834;29;20083;-78
2022/11/01 03:32:44;;;;;;;6.70;4.03;;;18.00;90.80;;;;;;4918766;29;20029;-80
2022/11/01 03:35:14;;;;;;;6.30;3.80;;;18.00;90.80;;;;;;4920062;29;20028;-79
2022/11/01 03:37:44;;;;;;;6.93;3.70;;;18.00;90.90;;;;;;4918449;29;20532;-79
2022/11/01 03:40:11;;;;;;;5.97;3.72;;;17.90;90.90;;;;;;4921020;29;20032;-80
2022/11/01 03:42:39;;;;;;;6.47;3.88;;;17.90;90.90;;;;;;4917381;29;20032;-79
2022/11/01 03:45:09;;;;;;;6.25;3.72;;;17.90;90.80;;;;;;4933372;29;20032;-78
2022/11/01 03:47:36;;;;;;;6.30;3.63;;;17.90;90.80;;;;;;4936883;29;20035;-79
2022/11/01 03:50:12;;;;;;;5.97;3.60;;;17.90;90.80;;;;;;4921124;29;20020;-79
2022/11/01 03:52:37;;;;;;;7.50;3.75;;;17.90;90.90;;;;;;4937854;29;20031;-78
2022/11/01 03:55:16;;;;;;;7.22;3.92;;;17.90;90.90;;;;;;4936331;29;20032;-79
2022/11/01 03:57:45;;;;;;;6.65;3.75;;;17.90;90.80;;;;;;4935853;29;20027;-78
2022/11/01 04:00:14;;;;;;;6.40;3.78;;;17.90;90.80;;;;;;4917891;29;20034;-81
2022/11/01 04:02:40;;;;;;;5.95;3.53;;;17.90;90.80;;;;;;4937965;29;20027;-79
2022/11/01 04:05:06;;;;;;;6.10;3.50;;;17.90;90.70;;;;;;4919849;29;20066;-79
2022/11/01 04:07:32;;;;;;;6.45;3.63;;;17.90;90.90;;;;;;4935581;29;20023;-78
2022/11/01 04:09:58;;;;;;;5.70;3.22;;;17.90;90.70;;;;;;4937348;29;20047;-79
2022/11/01 04:12:24;;;;;;;6.63;3.40;;;18.00;90.70;;;;;;4910311;29;20497;-79
2022/11/01 04:20:32;;;;;;;6.68;3.80;;;18.00;90.50;;;;;;4929274;29;20039;-79
2022/11/01 04:22:59;;;;;;;6.25;3.67;;;18.00;90.60;;;;;;4930059;29;20035;-80
2022/11/01 04:25:25;;;;;;;5.78;3.45;;;18.00;90.50;;;;;;4935073;29;20135;-80
2022/11/01 04:27:50;;;;;;;5.97;3.38;;;17.90;90.50;;;;;;4934779;29;20059;-79
2022/11/01 04:30:16;;;;;;;7.40;3.85;;;18.00;90.60;;;;;;4935566;29;20031;-78
2022/11/01 04:32:43;;;;;;;5.82;3.33;;;17.90;90.50;;;;;;4936149;29;20024;-78
2022/11/01 04:35:11;;;;;;;6.40;3.58;;;17.90;90.50;;;;;;4935988;29;20030;-79
2022/11/01 04:37:37;;;;;;;5.80;3.28;;;17.90;90.60;;;;;;4936136;29;20383;-79
2022/11/01 04:40:03;;;;;;;6.20;3.60;;;17.90;90.60;;;;;;4935935;29;20078;-78
2022/11/01 04:42:28;;;;;;;6.68;3.60;;;17.90;90.60;;;;;;4935290;29;20042;-78
2022/11/01 04:44:54;;;;;;;6.25;3.60;;;17.90;90.70;;;;;;4933588;29;20028;-79
2022/11/01 04:47:19;;;;;;;6.28;3.40;;;17.90;90.70;;;;;;4934161;29;20023;-79
2022/11/01 04:49:45;;;;;;;5.55;3.40;;;17.90;90.70;;;;;;4934699;29;20564;-78
2022/11/01 04:52:11;;;;;;;6.32;3.40;;;17.90;90.80;;;;;;4934127;29;20553;-78
2022/11/01 04:54:36;;;;;;;5.97;3.30;;;17.90;90.80;;;;;;4935605;29;20090;-78
2022/11/01 04:57:02;;;;;;;5.95;3.60;;;17.90;90.80;;;;;;4933954;29;20024;-79
2022/11/01 04:59:27;;;;;;;6.35;3.30;;;17.90;90.80;;;;;;4934114;29;20024;-79
2022/11/01 05:01:53;;;;;;;7.32;3.60;;;17.90;90.80;;;;;;4934629;29;20028;-78
2022/11/01 05:04:18;;;;;;;6.78;3.50;;;18.00;90.40;;;;;;4934286;29;20027;-78
2022/11/01 05:06:44;;;;;;;5.72;3.67;;;17.90;90.60;;;;;;4935070;29;20549;-78
2022/11/01 05:09:09;;;;;;;6.10;3.35;;;17.90;90.70;;;;;;4932442;29;20032;-78
2022/11/01 05:11:35;;;;;;;6.70;3.60;;;18.00;90.70;;;;;;4934149;29;20032;-78
2022/11/01 05:14:00;;;;;;;7.55;3.40;;;17.90;90.40;;;;;;4933994;29;20378;-78
2022/11/01 05:16:26;;;;;;;6.35;3.53;;;18.00;90.30;;;;;;4935032;29;20494;-79
2022/11/01 05:18:51;;;;;;;5.78;3.20;;;18.00;90.30;;;;;;4934050;29;20031;-79
2022/11/01 05:21:17;;;;;;;5.90;3.35;;;18.00;90.50;;;;;;4933488;29;20083;-78
2022/11/01 05:23:42;;;;;;;6.07;3.20;;;18.00;90.60;;;;;;4934964;29;20031;-79
2022/11/01 05:26:08;;;;;;;7.03;3.10;;;18.00;90.60;;;;;;4933343;29;20398;-79
2022/11/01 05:28:33;;;;;;;5.75;3.17;;;18.00;90.60;;;;;;4935226;29;20027;-77
2022/11/01 05:30:59;;;;;;;5.90;2.95;;;18.00;90.70;;;;;;4933580;29;21751;-78
2022/11/01 05:33:24;;;;;;;5.82;3.20;;;18.00;90.60;;;;;;4933513;29;20059;-79
2022/11/01 05:35:50;;;;;;;6.03;3.30;;;17.90;90.70;;;;;;4935343;29;20066;-79
2022/11/01 05:38:16;;;;;;;5.40;3.20;;;17.90;90.70;;;;;;4935091;29;20024;-78
2022/11/01 05:40:41;;;;;;;5.53;3.15;;;18.00;90.80;;;;;;4940584;29;20032;-81
2022/11/01 05:43:07;;;;;;;5.25;3.03;;;17.90;90.60;;;;;;4941002;29;20134;-80
2022/11/01 05:45:33;;;;;;;6.78;3.30;;;17.90;90.80;;;;;;4941577;29;20023;-80
2022/11/01 05:48:03;;;;;;;5.88;3.20;;;17.90;90.50;;;;;;4941590;29;20024;-80
2022/11/01 05:50:29;;;;;;;6.75;3.30;;;17.90;90.90;;;;;;4940915;29;20051;-80
2022/11/01 05:52:54;;;;;;;6.07;3.25;;;17.90;90.80;;;;;;4939664;29;20042;-79
2022/11/01 05:55:20;;;;;;;7.28;3.47;;;17.90;90.90;;;;;;4941334;29;20082;-80
2022/11/01 05:57:45;;;;;;;5.35;2.95;;;17.90;90.80;;;;;;4925584;29;20486;-82
2022/11/01 06:00:11;;;;;;;6.00;3.15;;;17.90;90.90;;;;;;4942229;29;20046;-80
2022/11/01 06:02:37;;;;;;;6.53;3.40;;;17.90;91.00;;;;;;4940599;29;20520;-78
2022/11/01 06:05:02;;;;;;;5.32;2.97;;;17.90;90.90;;;;;;4938162;29;20035;-80
2022/11/01 06:07:28;;;;;;;5.57;3.15;;;17.90;90.80;;;;;;4934888;29;20023;-80
2022/11/01 06:09:53;;;;;;;5.38;3.17;;;17.90;90.90;;;;;;4935512;29;20035;-79
2022/11/01 06:12:22;;;;;;;5.45;2.95;;;18.00;90.80;;;;;;4934189;29;20505;-79
2022/11/01 06:14:48;;;;;;;5.13;2.83;;;18.00;90.40;;;;;;4934637;29;20056;-80
2022/11/01 06:17:13;;;;;;;4.70;2.65;;;18.00;90.60;;;;;;4934245;29;20070;-78
2022/11/01 06:19:39;;;;;;;5.70;3.08;;;17.90;90.40;;;;;;4936625;29;20031;-80
2022/11/01 06:22:05;;;;;;;5.30;3.10;;;18.00;90.70;;;;;;4934562;29;20067;-80
2022/11/01 06:24:30;;;;;;;5.88;2.88;;;18.00;90.70;;;;;;4936211;29;20102;-80
2022/11/01 06:26:56;;;;;;;5.72;3.13;;;17.90;90.70;;;;;;4935993;29;20056;-80
2022/11/01 06:29:21;;;;;;;4.90;2.80;;;17.90;90.80;;;;;;4936223;29;20490;-81
2022/11/01 06:31:47;;;;;;;5.88;3.03;;;17.90;90.80;;;;;;4935131;29;20031;-80
2022/11/01 06:34:13;;;;;;;6.25;2.90;;;17.90;90.80;;;;;;4934132;29;20070;-80
2022/11/01 06:36:38;;;;;;;6.65;2.95;;;17.90;90.80;;;;;;4934263;29;20661;-80
2022/11/01 06:39:04;;;;;;;6.15;3.10;;;17.90;91.00;;;;;;4930981;29;20036;-80
2022/11/01 06:41:29;;;;;;;6.07;3.10;;;17.90;91.00;;;;;;4928438;29;20024;-80
2022/11/01 06:47:29;;;;;;;;;;;;;;;;;;;;;
2022/11/01 06:50:52;;;;;;;5.30;2.70;;;17.80;91.00;;;;;;4943424;29;20035;-80
2022/11/01 06:53:58;;;;;;;5.22;2.70;;;17.90;91.00;;;;;;4933632;29;20086;-80
2022/11/01 06:56:54;;;;;;;;;;;;;;;;;;;;;
2022/11/01 06:59:23;;;;;;;5.63;2.95;;;17.80;91.00;;;;;;4934437;29;20040;-79
2022/11/01 07:02:12;;;;;;;5.20;2.42;;;18.40;91.20;;;;;;4933533;29;20079;-79
2022/11/01 07:09:19;;;;;;;5.45;2.78;;;17.90;90.90;;;;;;4858404;29;20203;-82
2022/11/01 07:15:14;;;;;;;5.03;2.70;;;18.00;90.70;;;;;;4854678;29;20099;-80
2022/11/01 07:18:18;;;;;;;5.78;2.70;;;17.30;90.40;;;;;;4918198;29;20401;-80
2022/11/01 07:20:56;;;;;;;5.03;2.80;;;18.00;90.80;;;;;;4875637;29;20033;-81
2022/11/01 07:23:52;;;;;;;4.55;2.33;;;17.60;90.90;;;;;;4876026;29;20072;-80
2022/11/01 07:26:33;;;;;;;5.63;2.60;;;18.00;90.70;;;;;;4914989;29;20703;-80
2022/11/01 07:29:21;;;;;;;4.40;2.58;;;18.00;90.90;;;;;;4935055;29;20496;-80
2022/11/01 07:32:28;;;;;;;6.03;2.80;;;17.80;90.90;;;;;;4933234;29;20044;-79
2022/11/01 07:38:56;;;;;;;4.95;2.78;;;17.80;91.00;;;;;;4863691;29;20449;-79
2022/11/01 07:41:52;;;;;;;;;;;;;;;;;;;;;
2022/11/01 07:44:52;;;;;;;3.95;2.40;;;17.80;91.10;;;;;;4947154;29;20058;-78
2022/11/01 07:47:29;;;;;;;5.05;2.67;;;18.00;91.10;;;;;;4932653;29;20059;-79
2022/11/01 07:56:47;;;;;;;5.40;2.50;;;17.90;91.00;;;;;;4934090;29;20074;-79
2022/11/01 08:03:12;;;;;;;4.57;2.60;;;17.90;91.00;;;;;;4930280;29;20051;-79
2022/11/01 08:06:13;;;;;;;4.32;2.10;;;17.80;91.00;;;;;;4916120;29;20409;-79
2022/11/01 08:08:53;;;;;;;4.57;2.42;;;18.60;91.40;;;;;;4853057;29;20038;-80
2022/11/01 08:15:11;;;;;;;4.35;2.15;;;18.00;90.80;;;;;;4826462;29;20120;-79
2022/11/01 08:17:39;;;;;;;4.32;2.20;;;18.20;90.80;;;;;;4841556;29;20041;-79
2022/11/01 08:20:27;;;;;;;4.20;2.42;;;18.30;90.90;;;;;;4825434;29;20038;-79
2022/11/01 08:23:13;;;;;;;5.57;2.42;;;19.40;91.30;;;;;;4873200;29;20043;-79
2022/11/01 08:25:43;;;;;;;4.22;2.40;;;18.00;91.00;;;;;;4930659;29;20102;-79
2022/11/01 08:28:41;;;;;;;;;;;;;;;;;;;;;
2022/11/01 08:31:44;;;;;;;4.70;2.30;;;18.00;91.00;;;;;;4933491;29;20043;-79
2022/11/01 08:34:21;;;;;;;3.65;1.85;;;17.90;91.00;;;;;;4928921;29;20039;-79
2022/11/01 08:43:30;;;;;;;3.88;2.20;;;17.90;91.10;;;;;;4857345;29;20086;-79
2022/11/01 08:45:59;;;;;;;3.95;2.20;;;17.90;91.10;;;;;;4910721;29;20038;-78
2022/11/01 08:48:27;;;;;;;4.28;2.33;;;19.00;91.40;;;;;;4930445;29;20069;-79
2022/11/01 08:50:56;;;;;;;6.63;2.42;;;18.00;91.10;;;;;;4928529;29;20228;-79
2022/11/01 08:53:37;;;;;;;4.78;2.67;;;17.90;91.10;;;;;;4931400;29;20039;-79
2022/11/01 08:59:19;;;;;;;3.83;2.20;;;18.10;91.10;;;;;;4931026;29;20099;-79
2022/11/01 09:02:10;;;;;;;4.85;2.10;;;17.90;90.90;;;;;;4931863;29;20032;-80
2022/11/01 09:05:21;;;;;;;4.65;2.40;;;18.10;90.90;;;;;;4915196;29;20040;-80
2022/11/01 09:18:52;;;;;;;4.60;2.53;;;18.60;90.30;;;;;;4896170;29;20553;-81
2022/11/01 09:24:39;;;;;;;4.50;2.47;;;18.60;90.00;;;;;;5185952;23;20154;-80
2022/11/01 09:30:22;;;;;;;4.65;2.20;;;18.60;89.70;;;;;;4877795;29;20037;-79
2022/11/01 09:33:06;;;;;;;4.57;2.20;;;19.40;90.00;;;;;;4943663;28;20035;-79
2022/11/01 09:35:50;;;;;;;;;;;;;;;;;;;;;
2022/11/01 09:45:20;;;;;;;4.03;2.13;;;18.80;89.40;;;;;;4858716;29;20798;-80
2022/11/01 09:47:59;;;;;;;3.97;2.13;;;18.80;89.20;;;;;;4843876;29;20544;-81
2022/11/01 09:50:39;;;;;;;3.40;1.90;;;18.80;89.10;;;;;;4913040;29;20032;-80
2022/11/01 09:53:41;;;;;;;4.13;2.00;;;18.80;89.10;;;;;;4930477;29;20043;-80
2022/11/01 09:56:33;;;;;;;3.55;1.80;;;18.80;89.00;;;;;;4916196;29;20138;-80
2022/11/01 10:00:03;;;;;;;4.72;2.10;;;18.90;88.90;;;;;;4916797;29;20039;-79
2022/11/01 10:02:31;;;;;;;3.30;1.85;;;18.90;88.80;;;;;;4934277;29;20122;-79
2022/11/01 10:09:10;;;;;;;3.58;1.75;;;18.80;88.20;;;;;;4940731;29;20185;-80
2022/11/01 10:15:44;;;;;;;3.30;1.60;;;19.10;87.90;;;;;;4939544;29;20063;-80
2022/11/01 10:18:57;;;;;;;4.22;1.85;;;19.10;87.80;;;;;;4953746;28;20043;-80
2022/11/01 10:21:33;;;;;;;4.07;1.90;;;19.10;87.90;;;;;;4950515;29;20043;-79
2022/11/01 10:24:41;;;;;;;2.85;1.70;;;19.10;87.90;;;;;;4933299;29;20031;-80
2022/11/01 10:45:02;;;;;;;3.03;1.60;;;19.10;88.20;;;;;;4760486;30;20076;-80
2022/11/01 10:54:51;;;;;;;2.55;1.60;;;19.20;88.10;;;;;;4801366;29;20039;-81
2022/11/01 11:01:20;;;;;;;3.25;1.90;;;19.20;88.00;;;;;;4802317;29;20579;-79
2022/11/01 11:04:52;;;;;;;2.83;1.42;;;19.10;87.80;;;;;;4760419;30;20066;-85
2022/11/01 11:07:31;;;;;;;3.67;1.50;;;19.20;87.60;;;;;;4790942;29;20039;-80
2022/11/01 11:20:29;;;;;;;11.20;2.08;;;19.30;86.90;;;;;;4928905;29;20046;-80
2022/11/01 11:23:44;;;;;;;8.88;1.80;;;19.30;87.10;;;;;;4909272;29;20589;-79
2022/11/01 11:26:20;;;;;;;4.85;1.60;;;19.10;87.00;;;;;;4892717;29;20084;-79
2022/11/01 11:28:57;;;;;;;5.25;1.77;;;19.30;87.10;;;;;;4877526;29;20064;-80
2022/11/01 11:31:37;;;;;;;6.53;1.70;;;19.90;87.50;;;;;;4877498;29;20128;-80
2022/11/01 11:34:25;;;;;;;7.40;1.52;;;19.30;87.10;;;;;;4892032;29;20048;-80
2022/11/01 11:44:50;;;;;;;5.03;1.60;;;19.40;87.00;;;;;;4949495;23;20118;-81
2022/11/01 12:01:53;;;;;;;;;;;;;;;;;;;;;
2022/11/01 12:04:23;;;;;;;4.10;1.30;;;19.20;86.70;;;;;;4905867;29;20036;-82
2022/11/01 12:06:59;;;;;;;5.32;1.52;;;19.40;86.70;;;;;;4899910;29;20376;-81
2022/11/01 12:09:55;;;;;;;6.80;1.50;;;19.40;86.70;;;;;;4916165;29;20032;-79
2022/11/01 12:23:36;;;;;;;8.60;1.88;;;19.30;87.00;;;;;;4838143;29;20122;-80
2022/11/01 12:29:33;;;;;;;4.18;1.40;;;19.20;87.30;;;;;;4893198;29;20052;-79
2022/11/01 12:52:47;;;;;;;4.50;1.48;;;19.10;87.80;;;;;;4944021;28;20549;-80
2022/11/01 12:56:13;;;;;;;4.28;1.48;;;20.00;88.20;;;;;;4902555;29;20075;-78
2022/11/01 13:21:44;;;;;;;3.70;1.20;;;19.00;88.00;;;;;;4903816;29;20043;-80
2022/11/01 13:31:05;;;;;;;6.28;1.65;;;19.00;88.40;;;;;;4956457;29;20046;-81
2022/11/01 13:33:46;;;;;;;5.43;1.35;;;18.90;88.50;;;;;;4949916;29;20879;-80
2022/11/01 13:36:21;;;;;;;4.13;1.25;;;18.90;88.60;;;;;;4950217;29;20034;-81
2022/11/01 13:39:01;;;;;;;3.03;1.10;;;18.90;88.70;;;;;;4943435;29;20059;-80
2022/11/01 13:41:33;;;;;;;13.02;2.42;;;18.90;88.80;;;;;;4954858;28;20064;-79
2022/11/01 13:44:09;;;;;;;20.38;3.47;;;18.80;85.80;;;;;;4949923;29;20035;-79
2022/11/01 13:46:50;;;;;;;18.33;3.35;;;18.80;85.90;;;;;;4948275;29;20416;-79
2022/11/01 13:49:30;;;;;;;19.23;3.42;;;18.80;85.80;;;;;;4950290;29;20027;-79
2022/11/01 13:52:16;;;;;;;18.67;2.97;;;18.80;87.00;;;;;;4949150;29;20394;-80
2022/11/01 13:55:01;;;;;;;19.42;2.72;;;18.80;86.80;;;;;;4948876;29;20046;-79
2022/11/01 13:57:27;;;;;;;18.50;2.78;;;18.80;86.80;;;;;;4932879;28;20552;-79
2022/11/01 13:59:54;;;;;;;17.95;3.70;;;18.80;86.90;;;;;;4948601;28;20042;-79
2022/11/01 14:02:22;;;;;;;17.35;3.35;;;18.80;87.00;;;;;;4949806;29;20038;-80
2022/11/01 14:05:12;;;;;;;16.98;2.92;;;18.90;87.10;;;;;;4949536;29;20058;-79
2022/11/01 14:08:03;;;;;;;23.30;3.67;;;18.80;87.30;;;;;;4949900;29;20031;-79
2022/11/01 14:10:31;;;;;;;16.08;3.30;;;18.80;87.50;;;;;;4932415;29;20041;-79
2022/11/01 14:13:06;;;;;;;12.95;2.83;;;18.80;87.80;;;;;;4932125;28;20134;-79
2022/11/01 14:15:38;;;;;;;14.65;2.47;;;18.80;87.90;;;;;;4949827;29;20046;-79
2022/11/01 14:18:10;;;;;;;14.65;2.55;;;18.70;88.10;;;;;;4948482;29;20054;-79
2022/11/01 14:20:48;;;;;;;13.23;2.42;;;18.70;88.40;;;;;;4951878;29;20028;-80
2022/11/01 14:23:29;;;;;;;15.45;2.55;;;18.70;88.60;;;;;;4954208;29;20043;-80
2022/11/01 14:26:16;;;;;;;13.50;2.72;;;18.70;88.70;;;;;;4937794;28;20382;-80
2022/11/01 14:28:43;;;;;;;11.05;2.40;;;18.70;88.60;;;;;;4936745;29;20027;-80
2022/11/01 14:31:12;;;;;;;11.63;2.08;;;18.70;88.80;;;;;;4952797;29;20465;-80
2022/11/01 14:33:38;;;;;;;15.43;1.92;;;18.70;88.80;;;;;;4951833;29;20023;-79
2022/11/01 14:36:06;;;;;;;15.95;2.47;;;18.70;89.00;;;;;;4951844;29;20485;-80
2022/11/01 14:38:41;;;;;;;10.50;2.00;;;18.60;89.00;;;;;;4951549;29;20035;-80
2022/11/01 14:41:08;;;;;;;8.88;2.38;;;18.60;89.10;;;;;;4951517;29;20409;-79
2022/11/01 14:43:44;;;;;;;12.02;2.60;;;18.60;89.70;;;;;;4950849;29;20038;-79
2022/11/01 14:46:12;;;;;;;12.35;2.45;;;18.60;89.20;;;;;;4951156;29;20496;-80
2022/11/01 14:49:17;;;;;;;7.82;1.80;;;18.60;89.10;;;;;;4934152;28;20437;-80
2022/11/01 14:51:49;;;;;;;7.25;1.83;;;18.60;89.10;;;;;;4949796;29;20368;-80
2022/11/01 14:54:30;;;;;;;7.95;2.08;;;18.60;89.00;;;;;;4949838;29;20118;-79
2022/11/01 14:56:57;;;;;;;10.75;1.90;;;18.60;89.00;;;;;;4950047;29;20027;-80
2022/11/01 14:59:26;;;;;;;8.55;2.22;;;18.60;89.00;;;;;;4949689;29;20046;-79
2022/11/01 15:02:06;;;;;;;10.90;2.13;;;18.60;88.90;;;;;;4949334;29;20034;-80
2022/11/01 15:04:43;;;;;;;9.05;2.20;;;18.60;89.00;;;;;;4933444;29;20042;-79
2022/11/01 15:07:19;;;;;;;11.10;2.17;;;18.60;89.20;;;;;;4951003;28;20030;-78
2022/11/01 15:09:58;;;;;;;9.05;1.75;;;18.50;89.30;;;;;;4932486;28;20027;-79
2022/11/01 15:12:26;;;;;;;9.18;2.22;;;18.60;89.50;;;;;;4947980;28;20054;-80
2022/11/01 15:14:55;;;;;;;8.35;1.85;;;18.50;89.50;;;;;;4948946;29;20104;-79
2022/11/01 15:17:30;;;;;;;10.02;1.92;;;18.50;89.60;;;;;;4961699;28;20046;-80
2022/11/01 15:19:57;;;;;;;7.93;1.63;;;18.50;89.70;;;;;;4969316;28;20496;-79
2022/11/01 15:22:26;;;;;;;8.23;1.65;;;18.50;89.80;;;;;;4951226;28;20123;-79
2022/11/01 15:24:56;;;;;;;6.85;1.67;;;18.40;89.80;;;;;;4950703;28;20053;-79
2022/11/01 15:27:26;;;;;;;7.75;1.58;;;18.40;90.00;;;;;;4968654;28;20019;-80
2022/11/01 15:29:54;;;;;;;5.90;1.77;;;18.40;90.00;;;;;;4950965;28;20034;-79
2022/11/01 15:32:28;;;;;;;7.75;2.08;;;18.40;90.10;;;;;;4968579;28;20544;-80
2022/11/01 15:34:56;;;;;;;7.40;1.70;;;18.40;90.00;;;;;;4950596;28;20290;-79
2022/11/01 15:37:25;;;;;;;5.82;1.55;;;18.40;90.00;;;;;;4950727;28;20522;-79
2022/11/01 15:39:50;;;;;;;6.97;1.80;;;18.40;90.00;;;;;;4968113;28;20030;-80
2022/11/01 15:42:22;;;;;;;6.70;1.42;;;18.40;90.10;;;;;;4967655;28;20560;-79
2022/11/01 15:44:48;;;;;;;5.63;1.35;;;18.30;90.00;;;;;;4950475;28;20031;-80
2022/11/01 15:47:24;;;;;;;7.72;1.73;;;18.40;90.00;;;;;;4950724;28;20062;-79
2022/11/01 15:50:05;;;;;;;5.35;1.42;;;18.40;89.90;;;;;;4950055;28;20505;-79
2022/11/01 15:52:32;;;;;;;7.05;1.88;;;18.40;89.80;;;;;;4967511;28;20034;-79
2022/11/01 15:55:13;;;;;;;7.38;1.60;;;18.50;89.70;;;;;;4950116;28;20350;-80
2022/11/01 15:57:45;;;;;;;7.28;2.03;;;18.50;89.60;;;;;;4967181;28;20031;-79
2022/11/01 16:00:18;;;;;;;6.78;1.40;;;18.50;89.60;;;;;;4949881;28;20045;-79
2022/11/01 16:03:03;;;;;;;4.97;1.30;;;18.50;89.70;;;;;;4949699;28;20084;-79
2022/11/01 16:05:34;;;;;;;5.55;1.40;;;18.40;89.80;;;;;;4949902;28;20183;-79
2022/11/01 16:08:00;;;;;;;6.03;1.38;;;18.40;89.90;;;;;;4949674;28;20331;-78
2022/11/01 16:10:28;;;;;;;7.28;1.60;;;18.40;90.00;;;;;;4949837;28;20065;-79
2022/11/01 16:12:57;;;;;;;5.47;1.48;;;18.40;90.00;;;;;;4966605;28;20082;-79
2022/11/01 16:15:33;;;;;;;5.50;1.30;;;18.40;90.00;;;;;;4966869;28;20063;-80
2022/11/01 16:18:01;;;;;;;6.00;1.80;;;18.30;90.10;;;;;;4949771;28;20066;-79
2022/11/01 16:20:41;;;;;;;5.70;1.45;;;18.30;90.10;;;;;;4949992;28;20090;-80
2022/11/01 16:23:09;;;;;;;;;;;18.30;90.10;;;;;;4944704;28;20031;-80
2022/11/01 16:25:37;;;;;;;7.30;2.22;;;18.30;90.10;;;;;;4950676;28;19922;-80
2022/11/01 16:28:22;;;;;;;7.00;1.55;;;18.30;90.10;;;;;;4948845;28;20028;-79
2022/11/01 16:30:53;;;;;;;11.73;1.88;;;18.30;88.00;;;;;;4943402;28;20043;-79
2022/11/01 16:33:42;;;;;;;14.07;2.30;;;18.30;86.60;;;;;;4957138;28;20019;-79
2022/11/01 16:36:17;;;;;;;11.05;2.63;;;18.30;86.70;;;;;;4953028;28;20141;-80
2022/11/01 16:38:47;;;;;;;8.07;1.65;;;18.40;87.00;;;;;;4960034;28;20042;-81
2022/11/01 16:41:36;;;;;;;12.85;1.60;;;18.30;87.60;;;;;;4957235;28;20043;-81
2022/11/01 16:44:12;;;;;;;9.57;1.60;;;18.30;87.60;;;;;;4961455;28;20031;-81
2022/11/01 16:46:41;;;;;;;9.65;1.90;;;18.30;87.60;;;;;;4965587;28;21010;-80
2022/11/01 16:49:13;;;;;;;8.18;1.85;;;18.30;87.50;;;;;;4951477;28;20039;-82
2022/11/01 16:51:46;;;;;;;8.52;1.80;;;18.30;87.80;;;;;;4968943;28;20019;-79
2022/11/01 16:54:12;;;;;;;8.40;1.42;;;18.20;87.80;;;;;;4949976;28;20027;-79